AAL68 KMIA-LEMD
Flight info
| Callsign | AAL68 |
|---|---|
| Flight time | N/A |
| Altitude | 33000 |
| Route | FOLZZ3 ZFP DCT BAAGR DCT CNNOR/M083F330 M328 ANTIG DCT BALOO/M083F350 DCT 35N060W 3830N05000W 39N040W 39N030W DCT LENSI/M083F370 DCT GUNTI/N0480F360 DCT TOFEF DCT OGERO DCT ROLDO DCT RUKER Z409 TLD |
| Aircraft | B77W/H-SDE1E2E3FGHIJ2J3J4J5M1RWXY/LB1D1 |
Departure
| Time | 2026-05-03 21:49 |
|---|---|
| Airport | Miami International Airport (KMIA) |
Arrival
| Time | N/A |
|---|---|
| Airport | Adolfo Suárez Madrid–Barajas Airport (LEMD) |
| Time | Latitude | Longitude | Altitude | Speed | Heading |
|---|---|---|---|---|---|
| 2026-05-03 21:16 | 25.79800 | -80.27775 | 20 ft | 0 kts | 178° |
| 2026-05-03 21:18 | 25.79794 | -80.27774 | 20 ft | 0 kts | 178° |
| 2026-05-03 21:36 | 25.79803 | -80.27775 | 20 ft | 4 kts | 173° |
| 2026-05-03 21:36 | 25.79828 | -80.27778 | 23 ft | 3 kts | 199° |
| 2026-05-03 21:37 | 25.79849 | -80.27768 | 22 ft | 4 kts | 204° |
| 2026-05-03 21:37 | 25.79871 | -80.27754 | 24 ft | 4 kts | 241° |
| 2026-05-03 21:37 | 25.79884 | -80.27754 | 25 ft | 4 kts | 338° |
| 2026-05-03 21:37 | 25.79899 | -80.27755 | 22 ft | 0 kts | 358° |
| 2026-05-03 21:43 | 25.79935 | -80.27760 | 20 ft | 9 kts | 344° |
| 2026-05-03 21:43 | 25.79970 | -80.27817 | 20 ft | 11 kts | 279° |
| 2026-05-03 21:43 | 25.79994 | -80.27890 | 19 ft | 10 kts | 326° |
| 2026-05-03 21:44 | 25.80046 | -80.27949 | 19 ft | 16 kts | 285° |
| 2026-05-03 21:44 | 25.80045 | -80.28093 | 19 ft | 19 kts | 267° |
| 2026-05-03 21:44 | 25.80039 | -80.28240 | 19 ft | 19 kts | 267° |
| 2026-05-03 21:44 | 25.80033 | -80.28387 | 19 ft | 19 kts | 267° |
| 2026-05-03 21:45 | 25.80027 | -80.28534 | 20 ft | 19 kts | 267° |
| 2026-05-03 21:45 | 25.80020 | -80.28697 | 24 ft | 24 kts | 267° |
| 2026-05-03 21:45 | 25.80012 | -80.28879 | 24 ft | 24 kts | 267° |
| 2026-05-03 21:45 | 25.80005 | -80.29061 | 24 ft | 24 kts | 267° |
| 2026-05-03 21:46 | 25.79998 | -80.29243 | 21 ft | 24 kts | 267° |
| 2026-05-03 21:46 | 25.79990 | -80.29423 | 19 ft | 24 kts | 267° |
| 2026-05-03 21:46 | 25.79982 | -80.29617 | 19 ft | 26 kts | 267° |
| 2026-05-03 21:46 | 25.79974 | -80.29813 | 19 ft | 26 kts | 267° |
| 2026-05-03 21:47 | 25.79977 | -80.29966 | 18 ft | 11 kts | 284° |
| 2026-05-03 21:47 | 25.79996 | -80.30044 | 18 ft | 11 kts | 286° |
| 2026-05-03 21:47 | 25.80026 | -80.30115 | 19 ft | 10 kts | 316° |
| 2026-05-03 21:47 | 25.80062 | -80.30121 | 19 ft | 1 kts | 21° |
| 2026-05-03 21:48 | 25.80076 | -80.30100 | 18 ft | 6 kts | 70° |
| 2026-05-03 21:48 | 25.80075 | -80.30048 | 18 ft | 10 kts | 89° |
| 2026-05-03 21:48 | 25.80084 | -80.29827 | 18 ft | 62 kts | 87° |
| 2026-05-03 21:48 | 25.80117 | -80.29033 | 22 ft | 143 kts | 87° |
| 2026-05-03 21:49 | 25.80174 | -80.27656 | 69 ft | 204 kts | 87° |
| 2026-05-03 21:49 | 25.80235 | -80.26064 | 805 ft | 204 kts | 91° |
| 2026-05-03 21:49 | 25.79906 | -80.24495 | 1347 ft | 218 kts | 117° |
| 2026-05-03 21:49 | 25.79112 | -80.22968 | 1516 ft | 244 kts | 120° |
| 2026-05-03 21:50 | 25.78269 | -80.21265 | 2011 ft | 258 kts | 118° |
| 2026-05-03 21:50 | 25.77441 | -80.19465 | 2689 ft | 265 kts | 117° |
| 2026-05-03 21:50 | 25.76606 | -80.17614 | 3330 ft | 273 kts | 119° |
| 2026-05-03 21:50 | 25.75695 | -80.15744 | 3989 ft | 277 kts | 120° |
| 2026-05-03 21:51 | 25.74778 | -80.13849 | 4725 ft | 279 kts | 114° |
| 2026-05-03 21:51 | 25.74413 | -80.11710 | 5248 ft | 290 kts | 85° |
| 2026-05-03 21:51 | 25.74924 | -80.09547 | 5916 ft | 293 kts | 64° |
| 2026-05-03 21:51 | 25.76028 | -80.07648 | 6585 ft | 294 kts | 48° |
| 2026-05-03 21:52 | 25.77360 | -80.05939 | 6989 ft | 299 kts | 47° |
| 2026-05-03 21:52 | 25.78759 | -80.04198 | 6988 ft | 304 kts | 46° |
| 2026-05-03 21:52 | 25.80170 | -80.02450 | 7355 ft | 303 kts | 46° |
| 2026-05-03 21:52 | 25.81579 | -80.00697 | 8105 ft | 303 kts | 46° |
| 2026-05-03 21:53 | 25.82986 | -79.98937 | 8812 ft | 306 kts | 46° |
| 2026-05-03 21:53 | 25.84403 | -79.97156 | 9475 ft | 311 kts | 47° |
| 2026-05-03 21:53 | 25.85840 | -79.95341 | 10124 ft | 314 kts | 47° |
| 2026-05-03 21:53 | 25.87311 | -79.93481 | 10502 ft | 330 kts | 47° |
| 2026-05-03 21:54 | 25.88881 | -79.91492 | 10657 ft | 353 kts | 47° |
| 2026-05-03 21:54 | 25.90528 | -79.89402 | 10839 ft | 375 kts | 47° |
| 2026-05-03 21:54 | 25.92293 | -79.87158 | 11068 ft | 394 kts | 47° |
| 2026-05-03 21:54 | 25.94119 | -79.84831 | 11565 ft | 405 kts | 47° |
| 2026-05-03 21:55 | 25.95989 | -79.82445 | 12151 ft | 412 kts | 47° |
| 2026-05-03 21:55 | 25.97882 | -79.80028 | 12852 ft | 417 kts | 47° |
| 2026-05-03 21:55 | 25.99797 | -79.77583 | 13541 ft | 421 kts | 47° |
| 2026-05-03 21:55 | 26.01729 | -79.75115 | 14156 ft | 426 kts | 47° |
| 2026-05-03 21:56 | 26.03684 | -79.72618 | 14764 ft | 430 kts | 47° |
| 2026-05-03 21:56 | 26.05665 | -79.70085 | 15368 ft | 435 kts | 47° |
| 2026-05-03 21:56 | 26.07660 | -79.67535 | 15963 ft | 439 kts | 47° |
| 2026-05-03 21:56 | 26.09673 | -79.64959 | 16549 ft | 444 kts | 47° |
| 2026-05-03 21:57 | 26.11675 | -79.62315 | 17121 ft | 449 kts | 51° |
| 2026-05-03 21:57 | 26.13537 | -79.59489 | 17717 ft | 454 kts | 53° |
| 2026-05-03 21:57 | 26.15330 | -79.56573 | 18291 ft | 459 kts | 54° |
| 2026-05-03 21:57 | 26.17102 | -79.53657 | 18765 ft | 463 kts | 54° |
| 2026-05-03 21:58 | 26.18939 | -79.50675 | 19253 ft | 469 kts | 53° |
| 2026-05-03 21:58 | 26.20817 | -79.47673 | 19674 ft | 474 kts | 53° |
| 2026-05-03 21:58 | 26.22729 | -79.44648 | 20148 ft | 479 kts | 53° |
| 2026-05-03 21:58 | 26.24661 | -79.41605 | 20656 ft | 482 kts | 53° |
| 2026-05-03 21:59 | 26.26605 | -79.38539 | 21148 ft | 486 kts | 53° |
| 2026-05-03 21:59 | 26.28559 | -79.35447 | 21616 ft | 490 kts | 54° |
| 2026-05-03 21:59 | 26.30346 | -79.32187 | 22018 ft | 496 kts | 62° |
| 2026-05-03 21:59 | 26.31851 | -79.28703 | 22442 ft | 500 kts | 66° |
| 2026-05-03 22:00 | 26.33208 | -79.25166 | 22891 ft | 504 kts | 67° |
| 2026-05-03 22:00 | 26.34567 | -79.21537 | 23333 ft | 508 kts | 67° |
| 2026-05-03 22:00 | 26.35960 | -79.17889 | 23733 ft | 512 kts | 66° |
| 2026-05-03 22:00 | 26.37402 | -79.14229 | 24085 ft | 516 kts | 66° |
| 2026-05-03 22:01 | 26.38882 | -79.10566 | 24436 ft | 519 kts | 65° |
| 2026-05-03 22:01 | 26.40387 | -79.06892 | 24792 ft | 522 kts | 65° |
| 2026-05-03 22:01 | 26.41907 | -79.03199 | 25150 ft | 525 kts | 64° |
| 2026-05-03 22:01 | 26.43422 | -78.99536 | 25559 ft | 528 kts | 64° |
| 2026-05-03 22:02 | 26.44955 | -78.95802 | 26004 ft | 531 kts | 65° |
| 2026-05-03 22:02 | 26.46488 | -78.92035 | 26348 ft | 535 kts | 65° |
| 2026-05-03 22:02 | 26.48034 | -78.88233 | 26681 ft | 539 kts | 65° |
| 2026-05-03 22:02 | 26.49585 | -78.84418 | 27026 ft | 542 kts | 65° |
| 2026-05-03 22:03 | 26.51152 | -78.80570 | 27367 ft | 544 kts | 65° |
| 2026-05-03 22:03 | 26.52727 | -78.76700 | 27690 ft | 547 kts | 65° |
| 2026-05-03 22:03 | 26.54305 | -78.72820 | 28005 ft | 550 kts | 65° |
| 2026-05-03 22:03 | 26.55782 | -78.68847 | 28283 ft | 553 kts | 72° |
| 2026-05-03 22:04 | 26.56607 | -78.64703 | 28518 ft | 556 kts | 82° |
| 2026-05-03 22:04 | 26.57108 | -78.60410 | 28780 ft | 558 kts | 84° |